Time;durP1;ratioP1;P1;durP2;ratioP2;P2;SDS_P1;SDS_P2;PMS_P1;PMS_P2;Temp;Humidity;BMP_temperature;BMP_pressure;BME280_temperature;BME280_humidity;BME280_pressure;Samples;Min_cycle;Max_cycle;Signal;HPM_P1;HPM_P2
2022/06/29 00:00:20;;;;;;;6.63;5.10;;;24.40;98.20;;;;;;4938964;28;20084;-87
2022/06/29 00:02:48;;;;;;;7.63;5.43;;;24.30;98.40;;;;;;4932372;28;20055;-85
2022/06/29 00:05:21;;;;;;;6.28;5.68;;;24.20;98.30;;;;;;4940020;28;20086;-82
2022/06/29 00:10:23;;;;;;;6.95;5.60;;;23.90;99.20;;;;;;5658897;23;20066;-82
2022/06/29 00:35:19;;;;;;;8.68;5.90;;;23.40;99.90;;;;;;5797744;23;20043;-81
2022/06/29 00:41:07;;;;;;;8.90;6.22;;;23.40;99.90;;;;;;4940207;29;20740;-82
2022/06/29 00:44:09;;;;;;;6.85;5.72;;;23.40;99.90;;;;;;4937749;28;20051;-84
2022/06/29 00:47:16;;;;;;;7.47;5.78;;;23.50;99.90;;;;;;4957109;28;20024;-85
2022/06/29 00:49:45;;;;;;;7.22;5.95;;;23.50;99.90;;;;;;4943684;28;20026;-85
2022/06/29 00:52:13;;;;;;;6.60;5.60;;;23.50;99.90;;;;;;4927255;29;20034;-86
2022/06/29 00:54:53;;;;;;;6.10;5.40;;;23.60;99.90;;;;;;4929555;29;20032;-86
2022/06/29 01:00:29;;;;;;;6.90;6.20;;;23.60;99.90;;;;;;4936272;29;20059;-85
2022/06/29 01:03:01;;;;;;;7.00;5.85;;;23.50;99.90;;;;;;4932033;29;20053;-85
2022/06/29 01:05:34;;;;;;;7.63;5.68;;;23.50;99.90;;;;;;4929732;28;20050;-87
2022/06/29 01:08:06;;;;;;;7.78;6.05;;;23.40;99.90;;;;;;4943653;28;20046;-86
2022/06/29 01:10:52;;;;;;;8.02;5.63;;;23.40;99.90;;;;;;4943864;28;20096;-86
2022/06/29 01:13:20;;;;;;;7.72;5.82;;;23.40;99.90;;;;;;4924293;29;20031;-87
2022/06/29 01:15:58;;;;;;;6.35;5.75;;;23.40;99.90;;;;;;4936372;29;20016;-86
2022/06/29 01:18:37;;;;;;;7.25;5.60;;;23.40;99.90;;;;;;4929628;29;20477;-85
2022/06/29 01:21:05;;;;;;;6.68;6.05;;;23.30;99.90;;;;;;4937568;28;20038;-86
2022/06/29 01:23:39;;;;;;;7.30;5.60;;;23.30;99.90;;;;;;4933396;29;20461;-86
2022/06/29 01:26:21;;;;;;;7.40;5.90;;;23.30;99.90;;;;;;4920344;29;20020;-86
2022/06/29 01:28:53;;;;;;;6.32;5.72;;;23.20;99.90;;;;;;4952295;28;20015;-85
2022/06/29 01:31:23;;;;;;;7.40;6.10;;;23.20;99.90;;;;;;4949087;28;20043;-84
2022/06/29 01:33:48;;;;;;;7.43;5.80;;;23.10;99.90;;;;;;4946205;28;20050;-85
2022/06/29 01:36:16;;;;;;;7.93;5.88;;;23.20;99.90;;;;;;4923996;29;20043;-84
2022/06/29 01:38:48;;;;;;;6.60;6.00;;;23.20;99.90;;;;;;4943941;28;20051;-84
2022/06/29 01:41:16;;;;;;;6.47;5.40;;;23.20;99.90;;;;;;4941494;28;20027;-84
2022/06/29 01:43:42;;;;;;;5.95;5.38;;;23.10;99.90;;;;;;4924944;29;20024;-85
2022/06/29 01:46:09;;;;;;;6.85;6.00;;;23.10;99.90;;;;;;4932817;28;20269;-85
2022/06/29 01:48:36;;;;;;;7.10;6.35;;;23.00;99.90;;;;;;4931217;29;20468;-86
2022/06/29 01:51:04;;;;;;;8.60;6.07;;;23.00;99.90;;;;;;4942135;28;20034;-85
2022/06/29 01:53:32;;;;;;;6.10;5.30;;;22.90;99.90;;;;;;4943510;28;20468;-83
2022/06/29 01:55:57;;;;;;;6.97;6.28;;;22.90;99.90;;;;;;4942846;28;20126;-86
2022/06/29 01:58:32;;;;;;;6.72;6.03;;;22.90;99.90;;;;;;4931078;29;20068;-84
2022/06/29 02:00:58;;;;;;;6.85;6.07;;;22.90;99.90;;;;;;4927143;29;20055;-86
2022/06/29 02:03:31;;;;;;;8.43;6.55;;;22.90;99.90;;;;;;4933847;28;20016;-86
2022/06/29 02:09:22;;;;;;;7.07;5.95;;;22.80;99.90;;;;;;4933603;29;20123;-82
2022/06/29 02:12:35;;;;;;;6.75;6.03;;;22.70;99.90;;;;;;4928944;29;20565;-83
2022/06/29 02:15:40;;;;;;;7.15;6.18;;;22.70;99.90;;;;;;4926891;28;20032;-83
2022/06/29 02:21:28;;;;;;;6.63;5.93;;;22.70;99.90;;;;;;4932913;29;20050;-87
2022/06/29 02:27:16;;;;;;;8.65;6.40;;;22.80;99.90;;;;;;4945078;29;20030;-82
2022/06/29 02:30:05;;;;;;;8.18;5.88;;;22.70;99.90;;;;;;4932714;29;20106;-83
2022/06/29 02:35:44;;;;;;;9.55;6.35;;;22.70;99.90;;;;;;4932450;29;20035;-82
2022/06/29 02:38:14;;;;;;;9.57;6.45;;;22.80;99.90;;;;;;4950006;28;20032;-81
2022/06/29 02:44:02;;;;;;;6.75;6.13;;;22.60;99.90;;;;;;4956625;28;20078;-82
2022/06/29 02:47:04;;;;;;;7.22;6.18;;;22.50;99.90;;;;;;4978427;28;20027;-81
2022/06/29 03:04:56;;;;;;;9.57;6.95;;;22.40;99.90;;;;;;4954424;29;20070;-81
2022/06/29 03:16:43;;;;;;;7.55;5.72;;;22.30;99.90;;;;;;4939500;29;20117;-82
2022/06/29 03:37:19;;;;;;;6.97;6.35;;;22.60;99.90;;;;;;5230520;23;20117;-82
2022/06/29 03:42:56;;;;;;;8.80;6.47;;;22.80;99.90;;;;;;4963605;23;20181;-83
2022/06/29 03:48:45;;;;;;;7.20;6.50;;;22.90;99.90;;;;;;4917832;29;20107;-83
2022/06/29 03:51:13;;;;;;;7.72;6.75;;;22.90;99.90;;;;;;4917974;29;20569;-83
2022/06/29 03:59:51;;;;;;;6.38;5.57;;;23.00;99.90;;;;;;4995722;23;20397;-82
2022/06/29 04:05:15;;;;;;;8.45;6.30;;;23.30;99.90;;;;;;5628348;23;20039;-81
2022/06/29 04:13:03;;;;;;;7.35;6.47;;;23.00;99.90;;;;;;5525820;23;20050;-81
2022/06/29 04:15:28;;;;;;;7.57;6.85;;;22.90;99.90;;;;;;5329099;23;20043;-81
2022/06/29 04:17:55;;;;;;;7.50;6.35;;;23.00;99.90;;;;;;5553215;23;20674;-84
2022/06/29 04:23:04;;;;;;;9.45;6.43;;;23.10;99.90;;;;;;4910397;29;20075;-73
2022/06/29 04:25:30;;;;;;;7.60;6.03;;;23.20;99.90;;;;;;4918224;29;20023;-73
2022/06/29 04:27:58;;;;;;;7.72;6.93;;;23.30;99.90;;;;;;4916672;29;20395;-73
2022/06/29 04:30:24;;;;;;;7.85;7.10;;;23.40;99.90;;;;;;4911047;29;20473;-73
2022/06/29 04:32:52;;;;;;;8.43;7.18;;;23.20;99.90;;;;;;4916146;29;20497;-73
2022/06/29 04:35:18;;;;;;;7.72;6.80;;;23.10;99.90;;;;;;4928973;29;20024;-73
2022/06/29 04:37:45;;;;;;;7.43;6.72;;;23.20;99.90;;;;;;4919003;29;20028;-74
2022/06/29 04:40:11;;;;;;;9.30;6.65;;;23.20;99.90;;;;;;4914532;29;20059;-73
2022/06/29 04:42:37;;;;;;;7.70;6.88;;;23.30;99.90;;;;;;4930115;29;20043;-73
2022/06/29 04:46:19;;;;;;;9.05;6.55;;;23.40;99.90;;;;;;4914149;29;20036;-73
2022/06/29 04:47:54;;;;;;;8.07;6.97;;;23.60;99.90;;;;;;4916825;29;20062;-73
2022/06/29 04:50:19;;;;;;;7.18;6.45;;;23.70;99.90;;;;;;4925811;28;20075;-73
2022/06/29 04:52:46;;;;;;;7.72;6.82;;;24.00;99.90;;;;;;4909911;29;20028;-73
2022/06/29 04:55:11;;;;;;;8.75;6.88;;;24.00;99.90;;;;;;4929386;28;20032;-73
2022/06/29 04:57:37;;;;;;;7.45;6.75;;;24.10;99.90;;;;;;4914898;29;20039;-73
2022/06/29 05:00:03;;;;;;;8.30;6.95;;;24.20;99.90;;;;;;4930098;29;20079;-73
2022/06/29 05:02:30;;;;;;;8.77;7.00;;;24.20;99.90;;;;;;4916368;29;20114;-74
2022/06/29 05:04:56;;;;;;;11.32;7.20;;;24.10;99.90;;;;;;4921499;29;20019;-73
2022/06/29 05:07:23;;;;;;;11.70;7.15;;;24.10;99.90;;;;;;4918064;29;20039;-74
2022/06/29 05:09:49;;;;;;;10.90;7.25;;;24.10;99.90;;;;;;4918113;29;20039;-73
2022/06/29 05:12:17;;;;;;;7.70;6.88;;;24.30;99.90;;;;;;4915198;29;20043;-74
2022/06/29 05:14:44;;;;;;;9.73;7.10;;;24.10;99.90;;;;;;4922014;29;20031;-72
2022/06/29 05:17:12;;;;;;;9.60;7.47;;;24.10;99.90;;;;;;4912218;29;20031;-76
2022/06/29 05:19:40;;;;;;;10.93;7.03;;;24.10;99.90;;;;;;4921804;29;20063;-76
2022/06/29 05:22:05;;;;;;;7.43;6.72;;;24.40;99.90;;;;;;4934313;28;20039;-76
2022/06/29 05:24:31;;;;;;;9.32;7.60;;;24.90;99.90;;;;;;4934766;29;20020;-76
2022/06/29 05:26:59;;;;;;;;;;;25.10;99.90;;;;;;4921596;29;20039;-76
2022/06/29 05:29:25;;;;;;;8.27;7.40;;;24.90;99.90;;;;;;4931326;29;19907;-76
2022/06/29 05:31:52;;;;;;;9.13;7.13;;;24.90;99.90;;;;;;4927037;29;20035;-76
2022/06/29 05:34:18;;;;;;;8.85;7.10;;;24.90;99.90;;;;;;4919752;29;20031;-76
2022/06/29 05:36:44;;;;;;;;;;;25.20;99.90;;;;;;4913073;29;20533;-77
2022/06/29 05:39:17;;;;;;;8.02;7.22;;;25.70;99.80;;;;;;4936677;29;19914;-76
2022/06/29 05:41:43;;;;;;;10.50;7.60;;;25.50;99.20;;;;;;4930066;28;20586;-76
2022/06/29 05:44:14;;;;;;;10.32;7.80;;;25.80;99.00;;;;;;4915933;29;20024;-76
2022/06/29 05:46:40;;;;;;;8.27;6.82;;;25.70;99.00;;;;;;4911044;29;20473;-77
2022/06/29 05:49:07;;;;;;;;;;;25.90;99.10;;;;;;4917353;29;20035;-77
2022/06/29 05:51:33;;;;;;;9.63;7.13;;;25.70;99.20;;;;;;4935323;29;19907;-76
2022/06/29 05:54:00;;;;;;;9.18;6.90;;;25.70;99.70;;;;;;4916244;29;20038;-76
2022/06/29 05:56:31;;;;;;;7.70;6.90;;;26.20;98.40;;;;;;4920551;29;20031;-77
2022/06/29 05:58:58;;;;;;;7.60;6.80;;;26.50;98.00;;;;;;4915831;29;20027;-76
2022/06/29 06:01:24;;;;;;;8.98;6.90;;;27.30;96.90;;;;;;4916860;29;20055;-77
2022/06/29 06:04:02;;;;;;;9.65;7.80;;;28.00;95.40;;;;;;4915743;29;20051;-76
2022/06/29 06:06:27;;;;;;;7.80;7.10;;;27.40;94.90;;;;;;4920222;29;20058;-77
2022/06/29 06:08:55;;;;;;;10.40;7.32;;;27.40;95.00;;;;;;4917484;29;20043;-77
2022/06/29 06:11:26;;;;;;;9.82;7.63;;;26.90;95.90;;;;;;4919681;29;21438;-76
2022/06/29 06:13:53;;;;;;;9.45;7.60;;;26.50;96.70;;;;;;4931075;28;20032;-76
2022/06/29 06:16:19;;;;;;;13.27;8.52;;;26.30;96.90;;;;;;4915547;29;20032;-76
2022/06/29 06:18:45;;;;;;;9.93;8.93;;;25.80;97.90;;;;;;4917134;29;20039;-76
2022/06/29 06:21:13;;;;;;;;;;;25.60;99.20;;;;;;4911421;29;20024;-77
2022/06/29 06:23:40;;;;;;;11.40;9.60;;;25.10;99.10;;;;;;4908904;29;19947;-76
2022/06/29 06:26:10;;;;;;;13.77;9.65;;;25.10;99.60;;;;;;4918920;29;20039;-75
2022/06/29 06:28:39;;;;;;;12.80;8.65;;;25.00;99.90;;;;;;4934653;28;20378;-76
2022/06/29 06:31:07;;;;;;;12.98;9.02;;;25.10;99.90;;;;;;4910430;29;20594;-76
2022/06/29 06:33:33;;;;;;;13.98;9.70;;;25.10;99.90;;;;;;4931878;28;20115;-76
2022/06/29 06:36:04;;;;;;;13.80;9.98;;;25.50;99.90;;;;;;4912709;29;20038;-76
2022/06/29 06:38:31;;;;;;;17.02;10.25;;;25.80;99.20;;;;;;4921849;29;20358;-76
2022/06/29 06:43:46;;;;;;;11.18;9.30;;;26.50;97.40;;;;;;4915582;29;20095;-77
2022/06/29 06:46:11;;;;;;;;;;;26.60;97.50;;;;;;4935202;29;20027;-76
2022/06/29 06:48:38;;;;;;;11.80;8.73;;;26.70;96.80;;;;;;4919434;29;20400;-76
2022/06/29 06:51:04;;;;;;;13.57;8.68;;;26.90;96.50;;;;;;4914072;29;20631;-76
2022/06/29 06:53:29;;;;;;;;;;;27.20;96.10;;;;;;4916239;29;20060;-76
2022/06/29 06:55:57;;;;;;;14.13;8.95;;;27.40;95.90;;;;;;4931110;29;19907;-77
2022/06/29 06:58:24;;;;;;;12.02;8.98;;;27.50;95.30;;;;;;4919194;29;20493;-76
2022/06/29 07:00:50;;;;;;;11.63;8.48;;;27.20;95.80;;;;;;4911826;29;20119;-77
2022/06/29 07:03:16;;;;;;;;;;;27.20;95.70;;;;;;4926777;29;20114;-77
2022/06/29 07:05:48;;;;;;;8.95;8.05;;;27.60;95.40;;;;;;4916107;29;19907;-75
2022/06/29 07:08:14;;;;;;;10.98;7.35;;;28.30;94.70;;;;;;4925780;28;20118;-76
2022/06/29 07:10:39;;;;;;;13.05;8.60;;;28.50;93.70;;;;;;4906464;29;20107;-76
2022/06/29 07:13:06;;;;;;;11.77;8.43;;;28.50;93.10;;;;;;4912688;29;20056;-76
2022/06/29 07:15:32;;;;;;;12.55;8.13;;;28.10;93.90;;;;;;4912415;29;20039;-76
2022/06/29 07:17:59;;;;;;;14.60;8.88;;;27.90;94.60;;;;;;4911422;29;20032;-80
2022/06/29 07:20:28;;;;;;;15.05;8.02;;;28.60;93.70;;;;;;4921187;29;20771;-76
2022/06/29 07:23:03;;;;;;;9.00;8.10;;;29.40;92.90;;;;;;4907524;29;20032;-78
2022/06/29 07:25:32;;;;;;;10.52;8.02;;;29.20;92.10;;;;;;4907748;29;20086;-78
2022/06/29 07:27:59;;;;;;;9.32;7.20;;;29.60;91.50;;;;;;4913256;29;20056;-78
2022/06/29 07:30:25;;;;;;;10.55;8.05;;;30.60;90.70;;;;;;4908309;29;20095;-78
2022/06/29 07:33:01;;;;;;;8.68;7.43;;;30.90;89.70;;;;;;4908658;29;20147;-79
2022/06/29 07:35:29;;;;;;;10.30;7.13;;;31.50;87.40;;;;;;4919549;29;21111;-78
2022/06/29 07:37:55;;;;;;;8.73;7.18;;;33.00;82.70;;;;;;4926293;29;20024;-75
2022/06/29 07:40:22;;;;;;;9.57;6.50;;;32.60;81.70;;;;;;4922459;29;20035;-76
2022/06/29 07:42:49;;;;;;;7.45;6.22;;;33.00;80.00;;;;;;4922158;29;20153;-79
2022/06/29 07:45:22;;;;;;;7.63;6.93;;;32.70;80.90;;;;;;4902407;29;20496;-78
2022/06/29 07:48:02;;;;;;;9.00;6.10;;;32.10;81.90;;;;;;4907596;29;20397;-80
2022/06/29 07:50:30;;;;;;;10.98;6.53;;;32.50;81.10;;;;;;4906525;29;20024;-78
2022/06/29 07:53:04;;;;;;;8.52;6.75;;;31.80;81.30;;;;;;4920922;29;20091;-78
2022/06/29 07:55:30;;;;;;;11.15;6.63;;;32.70;81.00;;;;;;4904695;29;20043;-78
2022/06/29 07:58:03;;;;;;;7.18;5.60;;;32.90;79.10;;;;;;4908938;29;20040;-78
2022/06/29 08:00:29;;;;;;;6.90;5.93;;;33.50;78.40;;;;;;4903945;29;20032;-77
2022/06/29 08:02:55;;;;;;;8.10;6.00;;;34.30;76.00;;;;;;4925946;29;20054;-78
2022/06/29 08:05:22;;;;;;;11.65;6.57;;;33.90;75.80;;;;;;4903722;29;20103;-75
2022/06/29 08:07:48;;;;;;;9.40;6.20;;;33.70;76.80;;;;;;4902830;29;20064;-75
2022/06/29 08:10:14;;;;;;;10.00;6.32;;;34.20;75.10;;;;;;4908546;29;20056;-75
2022/06/29 08:12:41;;;;;;;6.05;5.15;;;34.00;73.30;;;;;;4899757;29;20036;-75
2022/06/29 08:15:07;;;;;;;11.23;6.25;;;34.30;74.30;;;;;;4909992;29;20028;-75
2022/06/29 08:17:34;;;;;;;8.55;6.50;;;33.90;73.30;;;;;;4905700;29;20458;-75
2022/06/29 08:20:01;;;;;;;7.05;6.28;;;32.10;77.10;;;;;;4909036;29;20036;-74
2022/06/29 08:22:27;;;;;;;7.03;5.97;;;32.20;78.40;;;;;;4914895;29;20033;-74
2022/06/29 08:24:52;;;;;;;8.13;6.70;;;32.60;77.60;;;;;;4902005;29;20102;-72
2022/06/29 08:27:22;;;;;;;11.50;6.60;;;32.00;78.10;;;;;;4896959;29;20017;-73
2022/06/29 08:29:49;;;;;;;9.68;6.57;;;31.90;79.30;;;;;;4901688;29;20033;-73
2022/06/29 08:32:16;;;;;;;8.35;5.70;;;31.90;79.50;;;;;;4904494;29;20032;-72
2022/06/29 08:34:41;;;;;;;7.95;6.20;;;31.90;79.00;;;;;;4900485;29;20028;-72
2022/06/29 08:37:07;;;;;;;7.43;5.97;;;31.80;80.00;;;;;;4902622;29;20027;-75
2022/06/29 08:39:33;;;;;;;10.68;6.45;;;33.00;77.20;;;;;;4905067;29;20571;-74
2022/06/29 08:42:04;;;;;;;8.30;6.00;;;32.80;76.20;;;;;;4904308;29;20509;-72
2022/06/29 08:44:34;;;;;;;7.47;5.85;;;33.30;75.90;;;;;;4908828;29;20107;-73
2022/06/29 08:47:06;;;;;;;8.10;6.47;;;33.10;76.50;;;;;;4904415;29;20024;-73
2022/06/29 08:49:33;;;;;;;11.82;6.57;;;33.10;76.00;;;;;;4901705;29;20143;-73
2022/06/29 08:52:01;;;;;;;9.27;5.90;;;33.50;75.40;;;;;;4903866;29;20038;-73
2022/06/29 08:54:27;;;;;;;8.00;5.43;;;34.00;75.00;;;;;;4910449;29;20036;-73
2022/06/29 08:56:57;;;;;;;9.23;5.50;;;33.60;74.50;;;;;;4916989;29;20028;-73
2022/06/29 08:59:23;;;;;;;6.40;5.70;;;34.00;72.40;;;;;;4902852;29;20032;-73
2022/06/29 09:01:51;;;;;;;6.38;5.60;;;34.00;71.90;;;;;;4902174;29;20047;-73
2022/06/29 09:04:18;;;;;;;9.43;5.93;;;34.30;71.80;;;;;;4910788;29;20047;-72
2022/06/29 09:06:51;;;;;;;8.82;5.55;;;34.00;72.10;;;;;;4912712;29;20023;-73
2022/06/29 09:09:17;;;;;;;13.48;5.93;;;33.90;71.80;;;;;;4905084;29;20102;-73
2022/06/29 09:11:43;;;;;;;10.90;6.13;;;33.80;73.00;;;;;;4900491;29;20527;-73
2022/06/29 09:14:12;;;;;;;9.88;5.03;;;33.80;71.70;;;;;;4908717;29;20031;-73
2022/06/29 09:16:59;;;;;;;10.98;5.85;;;34.10;70.50;;;;;;4912690;29;20471;-73
2022/06/29 09:19:29;;;;;;;8.52;5.68;;;34.60;70.30;;;;;;4918225;29;20028;-73
2022/06/29 09:21:57;;;;;;;9.65;5.78;;;34.80;69.70;;;;;;4919406;29;20052;-73
2022/06/29 09:24:26;;;;;;;8.35;6.38;;;34.30;69.50;;;;;;4902444;29;20485;-73
2022/06/29 09:26:54;;;;;;;6.47;5.50;;;34.60;69.50;;;;;;4908339;29;20115;-72
2022/06/29 09:29:28;;;;;;;6.40;5.22;;;35.60;67.60;;;;;;4909344;29;21002;-73
2022/06/29 09:32:06;;;;;;;7.57;6.00;;;35.10;68.30;;;;;;4915992;29;20043;-73
2022/06/29 09:34:53;;;;;;;9.35;5.20;;;36.00;66.10;;;;;;4902763;29;20035;-73
2022/06/29 09:37:21;;;;;;;6.25;4.85;;;37.10;64.80;;;;;;4900051;29;20036;-73
2022/06/29 09:39:55;;;;;;;6.82;4.78;;;39.30;62.20;;;;;;4919475;29;20449;-73
2022/06/29 09:42:21;;;;;;;8.48;4.75;;;40.50;59.20;;;;;;4914200;29;20029;-74
2022/06/29 09:44:48;;;;;;;8.52;5.60;;;39.60;58.10;;;;;;4907283;29;20050;-73
2022/06/29 09:47:16;;;;;;;7.50;5.32;;;40.40;57.20;;;;;;4901680;29;20083;-73
2022/06/29 09:49:43;;;;;;;9.48;5.10;;;40.90;56.30;;;;;;4905445;29;20104;-73
2022/06/29 09:52:10;;;;;;;6.22;4.95;;;41.70;54.90;;;;;;4912554;29;20034;-73
2022/06/29 09:54:51;;;;;;;12.13;5.03;;;41.70;54.70;;;;;;4916630;29;20016;-73
2022/06/29 09:57:20;;;;;;;5.90;5.07;;;40.70;54.20;;;;;;4912514;29;20026;-73
2022/06/29 10:02:58;;;;;;;8.52;4.65;;;40.50;54.90;;;;;;4906450;29;20155;-73
2022/06/29 10:05:28;;;;;;;7.68;5.50;;;38.90;56.50;;;;;;4922606;29;20120;-73
2022/06/29 10:07:55;;;;;;;6.22;5.63;;;40.10;55.60;;;;;;4922069;29;20063;-73
2022/06/29 10:10:23;;;;;;;6.55;4.78;;;41.80;54.20;;;;;;4912614;29;20115;-73
2022/06/29 10:15:57;;;;;;;7.75;5.82;;;44.60;49.30;;;;;;4909546;29;20047;-73
2022/06/29 10:18:49;;;;;;;7.00;5.22;;;39.50;52.30;;;;;;4911491;29;20549;-73
2022/06/29 10:21:19;;;;;;;5.78;5.13;;;39.80;54.20;;;;;;4905738;29;20059;-73
2022/06/29 10:23:57;;;;;;;8.13;5.40;;;39.70;53.60;;;;;;4902018;29;20024;-73
2022/06/29 10:26:30;;;;;;;7.60;5.18;;;40.80;53.30;;;;;;4901727;29;20115;-73
2022/06/29 10:29:19;;;;;;;11.60;5.45;;;40.40;53.20;;;;;;4908183;29;20012;-73
2022/06/29 10:31:54;;;;;;;5.57;5.07;;;39.90;52.60;;;;;;4901457;29;20099;-73
2022/06/29 10:34:32;;;;;;;7.78;4.47;;;40.70;52.30;;;;;;4909433;29;20039;-75
2022/06/29 10:37:01;;;;;;;5.55;4.85;;;42.50;51.20;;;;;;4905323;29;20429;-74
2022/06/29 10:39:51;;;;;;;7.20;5.47;;;42.30;50.30;;;;;;4917295;29;20036;-73
2022/06/29 10:45:17;;;;;;;9.05;5.22;;;41.90;50.90;;;;;;4897686;29;20061;-73
2022/06/29 10:47:52;;;;;;;9.23;5.15;;;40.40;51.50;;;;;;4919353;29;20103;-73
2022/06/29 10:50:19;;;;;;;9.55;5.38;;;38.30;54.60;;;;;;4926485;29;20016;-74
2022/06/29 10:52:46;;;;;;;10.85;5.60;;;39.10;53.90;;;;;;4917897;29;20038;-73
2022/06/29 10:55:13;;;;;;;5.53;4.90;;;38.40;54.10;;;;;;4906482;29;20016;-74
2022/06/29 10:57:42;;;;;;;9.40;4.88;;;38.70;54.10;;;;;;4925820;29;20034;-74
2022/06/29 11:00:14;;;;;;;5.15;4.60;;;38.90;53.50;;;;;;4920228;29;20030;-73
2022/06/29 11:02:42;;;;;;;6.20;4.15;;;37.80;54.80;;;;;;4899035;29;20079;-73
2022/06/29 11:05:08;;;;;;;5.47;4.45;;;36.80;55.70;;;;;;4925412;29;20403;-73
2022/06/29 11:13:10;;;;;;;7.75;5.15;;;34.60;59.20;;;;;;4900478;29;20084;-73
2022/06/29 11:15:47;;;;;;;7.28;4.78;;;34.20;60.00;;;;;;4906352;29;20031;-72
2022/06/29 11:18:21;;;;;;;7.82;5.07;;;33.70;60.40;;;;;;4926555;29;20023;-73
2022/06/29 11:20:49;;;;;;;6.82;4.63;;;33.40;61.00;;;;;;4909869;29;20043;-74
2022/06/29 11:23:16;;;;;;;8.27;5.28;;;32.80;61.80;;;;;;4906674;29;20038;-74
2022/06/29 11:25:48;;;;;;;8.15;4.78;;;32.70;62.80;;;;;;4908660;29;20064;-74
2022/06/29 11:28:18;;;;;;;11.27;4.90;;;32.80;63.40;;;;;;4920497;29;20034;-73
2022/06/29 11:31:03;;;;;;;6.50;4.63;;;33.30;61.70;;;;;;4900778;29;20020;-73
2022/06/29 11:33:30;;;;;;;9.20;4.45;;;32.90;61.70;;;;;;4907662;29;20145;-73
2022/06/29 11:36:21;;;;;;;6.35;4.63;;;32.40;61.80;;;;;;4908569;29;20028;-74
2022/06/29 11:39:04;;;;;;;5.95;4.50;;;32.50;62.50;;;;;;4913415;29;20032;-74
2022/06/29 11:44:27;;;;;;;8.65;4.50;;;32.50;61.90;;;;;;4895332;29;20033;-73
2022/06/29 11:46:54;;;;;;;4.85;4.03;;;32.20;62.70;;;;;;4905370;29;20028;-73
2022/06/29 11:49:39;;;;;;;9.20;4.63;;;32.10;63.30;;;;;;4906521;29;20107;-73
2022/06/29 11:52:08;;;;;;;9.23;5.10;;;32.00;63.40;;;;;;4899631;29;20907;-73
2022/06/29 11:54:38;;;;;;;5.47;4.82;;;31.90;63.20;;;;;;4927527;29;20038;-74
2022/06/29 11:57:10;;;;;;;6.15;4.40;;;31.90;63.30;;;;;;4918326;29;20056;-73
2022/06/29 11:59:37;;;;;;;6.93;4.97;;;31.90;63.00;;;;;;4916365;29;20028;-73
2022/06/29 12:02:03;;;;;;;6.53;5.03;;;32.00;62.90;;;;;;4904045;29;20505;-74
2022/06/29 12:04:31;;;;;;;6.95;4.63;;;32.20;62.80;;;;;;4909715;29;20055;-74
2022/06/29 12:07:09;;;;;;;8.13;4.55;;;32.40;63.20;;;;;;4907797;29;20030;-73
2022/06/29 12:09:37;;;;;;;8.10;4.38;;;32.70;62.60;;;;;;4904699;29;20904;-73
2022/06/29 12:12:04;;;;;;;5.68;4.20;;;32.80;61.80;;;;;;4909921;29;20030;-74
2022/06/29 12:14:30;;;;;;;7.55;4.25;;;32.90;62.20;;;;;;4931751;29;20794;-74
2022/06/29 12:16:55;;;;;;;6.47;4.20;;;32.70;60.90;;;;;;4908668;29;20098;-73
2022/06/29 12:19:22;;;;;;;6.90;3.97;;;32.80;61.50;;;;;;4907715;29;20048;-74
2022/06/29 12:21:48;;;;;;;6.85;4.60;;;33.20;61.60;;;;;;4927325;29;20055;-74
2022/06/29 12:24:17;;;;;;;6.85;4.53;;;33.40;60.90;;;;;;4901534;29;20110;-77
2022/06/29 12:26:43;;;;;;;6.50;4.35;;;33.40;60.30;;;;;;4908174;29;20028;-76
2022/06/29 12:29:09;;;;;;;5.70;3.95;;;33.40;59.50;;;;;;4925889;29;20043;-78
2022/06/29 12:31:43;;;;;;;6.47;4.28;;;33.70;59.60;;;;;;4917644;29;20020;-77
2022/06/29 12:34:10;;;;;;;4.40;3.38;;;33.80;58.40;;;;;;4905152;29;20020;-77
2022/06/29 12:36:37;;;;;;;5.82;3.78;;;34.20;58.60;;;;;;4907051;29;20066;-77
2022/06/29 12:39:04;;;;;;;5.43;3.85;;;34.40;58.30;;;;;;4917471;29;20503;-77
2022/06/29 12:41:32;;;;;;;5.47;3.63;;;34.40;58.60;;;;;;4931814;29;20031;-77
2022/06/29 12:43:59;;;;;;;6.85;3.58;;;34.20;57.80;;;;;;4909627;29;20035;-77
2022/06/29 12:46:32;;;;;;;5.55;3.65;;;33.80;58.60;;;;;;4917987;29;20343;-77
2022/06/29 12:49:00;;;;;;;4.85;3.60;;;33.70;58.40;;;;;;4909413;29;20032;-77
2022/06/29 12:51:33;;;;;;;4.28;3.08;;;33.70;58.50;;;;;;4913865;29;20024;-77
2022/06/29 12:53:59;;;;;;;6.18;3.38;;;33.90;57.70;;;;;;4933334;29;20028;-77
2022/06/29 12:56:31;;;;;;;6.95;3.38;;;34.10;57.90;;;;;;4909343;29;20749;-76
2022/06/29 12:59:00;;;;;;;3.40;3.10;;;34.00;57.80;;;;;;4926894;29;20764;-77
2022/06/29 13:01:26;;;;;;;4.95;3.20;;;33.70;58.30;;;;;;4907758;29;20127;-77
2022/06/29 13:03:54;;;;;;;4.82;3.40;;;33.40;58.30;;;;;;4911912;29;20111;-77
2022/06/29 13:06:34;;;;;;;9.43;3.58;;;33.30;58.40;;;;;;4930220;29;20020;-77
2022/06/29 13:09:00;;;;;;;5.30;3.53;;;33.10;59.00;;;;;;4905267;29;20164;-77
2022/06/29 13:11:33;;;;;;;4.20;3.80;;;33.00;58.50;;;;;;4913333;29;20099;-78
2022/06/29 13:14:00;;;;;;;6.25;3.70;;;33.10;59.00;;;;;;4929471;29;20027;-77
2022/06/29 13:16:28;;;;;;;3.55;3.22;;;33.30;58.60;;;;;;4911437;29;20056;-77
2022/06/29 13:18:53;;;;;;;7.38;3.30;;;33.60;58.10;;;;;;4910597;29;20028;-76
2022/06/29 13:21:26;;;;;;;8.82;3.67;;;33.60;56.40;;;;;;4922111;29;20074;-78
2022/06/29 13:23:52;;;;;;;3.28;2.95;;;33.60;56.40;;;;;;4928281;29;20122;-77
2022/06/29 13:26:19;;;;;;;6.18;3.70;;;33.70;56.80;;;;;;4908221;29;20024;-78
2022/06/29 13:28:45;;;;;;;4.47;3.28;;;33.70;56.90;;;;;;4921433;29;20035;-77
2022/06/29 13:31:12;;;;;;;4.35;3.40;;;33.70;57.30;;;;;;4905946;29;20019;-78
2022/06/29 13:33:39;;;;;;;6.20;3.22;;;33.90;57.10;;;;;;4913796;29;20111;-78
2022/06/29 13:36:14;;;;;;;4.80;3.33;;;34.00;56.80;;;;;;4905001;29;20497;-78
2022/06/29 13:38:43;;;;;;;3.42;2.90;;;34.20;56.30;;;;;;4931155;29;20031;-78
2022/06/29 13:41:10;;;;;;;7.00;3.25;;;34.30;56.10;;;;;;4911707;29;20031;-77
2022/06/29 13:43:36;;;;;;;7.07;3.40;;;34.30;56.60;;;;;;4906216;29;20063;-76
2022/06/29 13:46:02;;;;;;;4.80;3.17;;;34.20;56.10;;;;;;4934197;29;20048;-77
2022/06/29 13:48:28;;;;;;;5.10;3.55;;;34.10;56.20;;;;;;4907539;29;20024;-77
2022/06/29 13:50:54;;;;;;;5.82;3.40;;;33.90;56.70;;;;;;4917872;29;20039;-77
2022/06/29 13:53:25;;;;;;;7.32;3.50;;;33.50;57.30;;;;;;4906981;29;20031;-77
2022/06/29 13:55:51;;;;;;;7.32;3.50;;;33.20;57.80;;;;;;4905631;29;20047;-79
2022/06/29 13:58:17;;;;;;;8.32;3.75;;;32.70;58.60;;;;;;4917804;29;20028;-77
2022/06/29 14:00:42;;;;;;;10.32;4.40;;;31.50;67.70;;;;;;4914569;29;20031;-77
2022/06/29 14:03:14;;;;;;;6.65;4.45;;;29.40;79.20;;;;;;4904102;29;20020;-76
2022/06/29 14:06:01;;;;;;;7.35;5.38;;;27.70;90.00;;;;;;4923430;29;20584;-77
2022/06/29 14:08:27;;;;;;;7.25;5.22;;;27.00;99.90;;;;;;4924150;29;20051;-77
2022/06/29 14:11:00;;;;;;;;;;;26.80;99.90;;;;;;4906369;29;20063;-77
2022/06/29 14:13:28;;;;;;;6.53;5.13;;;26.70;99.90;;;;;;4900688;29;19918;-77
2022/06/29 14:15:54;;;;;;;7.68;4.50;;;26.80;99.90;;;;;;4923782;29;20028;-77
2022/06/29 14:18:19;;;;;;;;;;;26.80;99.90;;;;;;4906861;29;20018;-77
2022/06/29 14:20:51;;;;;;;5.47;4.72;;;26.80;99.90;;;;;;4911646;29;19911;-78
2022/06/29 14:23:17;;;;;;;7.60;4.22;;;27.00;99.90;;;;;;4901774;29;20032;-76
2022/06/29 14:25:43;;;;;;;;;;;27.10;99.90;;;;;;4927986;29;20020;-77
2022/06/29 14:28:15;;;;;;;6.45;5.07;;;27.20;99.90;;;;;;4909006;29;19917;-77
2022/06/29 14:30:41;;;;;;;8.70;4.88;;;27.20;99.90;;;;;;4904288;29;20028;-77
2022/06/29 14:33:07;;;;;;;5.70;4.90;;;27.40;99.90;;;;;;4907043;29;20028;-77
2022/06/29 14:35:38;;;;;;;;;;;27.60;99.90;;;;;;4910082;29;20025;-77
2022/06/29 14:38:04;;;;;;;9.50;4.70;;;27.80;99.90;;;;;;4910721;29;20009;-77
2022/06/29 14:40:33;;;;;;;5.60;4.50;;;28.00;99.90;;;;;;4903323;29;20080;-77
2022/06/29 14:43:01;;;;;;;6.97;4.20;;;28.10;99.90;;;;;;4911779;29;20051;-77
2022/06/29 14:45:33;;;;;;;6.78;5.03;;;28.30;99.90;;;;;;4905493;29;20091;-77
2022/06/29 14:48:00;;;;;;;10.93;5.15;;;28.50;99.90;;;;;;4911631;29;20032;-77
2022/06/29 14:50:36;;;;;;;6.75;4.47;;;28.50;99.90;;;;;;4903299;29;20103;-78
2022/06/29 14:53:03;;;;;;;4.93;3.40;;;28.50;95.30;;;;;;4904673;29;20027;-76
2022/06/29 14:55:40;;;;;;;9.23;4.00;;;28.90;85.50;;;;;;4903315;29;20044;-77
2022/06/29 14:58:05;;;;;;;3.80;3.20;;;29.40;81.50;;;;;;4907567;29;20912;-77
2022/06/29 15:00:33;;;;;;;7.22;3.05;;;29.70;80.10;;;;;;4909407;29;20035;-77
2022/06/29 15:03:00;;;;;;;6.97;3.78;;;29.90;79.80;;;;;;4921501;29;20032;-77
2022/06/29 15:05:25;;;;;;;4.53;4.13;;;30.20;78.00;;;;;;4917430;29;20033;-77
2022/06/29 15:07:51;;;;;;;8.20;4.47;;;30.40;86.00;;;;;;4904277;29;20028;-79
2022/06/29 15:10:20;;;;;;;6.57;5.40;;;30.70;88.80;;;;;;4902777;29;20497;-78
2022/06/29 15:12:45;;;;;;;11.15;5.95;;;30.90;90.80;;;;;;4913583;29;20074;-78
2022/06/29 15:15:11;;;;;;;6.93;5.45;;;30.90;90.80;;;;;;4900295;29;20469;-77